Time;durP1;ratioP1;P1;durP2;ratioP2;P2;SDS_P1;SDS_P2;PMS_P1;PMS_P2;Temp;Humidity;BMP_temperature;BMP_pressure;BME280_temperature;BME280_humidity;BME280_pressure;Samples;Min_cycle;Max_cycle;Signal;HPM_P1;HPM_P2
2023/10/14 00:00:28;;;;;;;5.50;3.37;;;;;;;23.29;nan;98944.66;4979854;28;20481;-80
2023/10/14 00:02:53;;;;;;;5.77;3.50;;;;;;;23.25;nan;98950.59;4980259;28;20521;-81
2023/10/14 00:05:20;;;;;;;8.60;3.80;;;;;;;23.21;nan;98942.13;4977903;28;20462;-81
2023/10/14 00:07:45;;;;;;;8.15;4.28;;;;;;;23.19;nan;98949.53;4978412;28;20471;-80
2023/10/14 00:10:12;;;;;;;5.20;3.37;;;;;;;23.12;nan;98946.81;4976003;28;20284;-83
2023/10/14 00:12:39;;;;;;;8.57;4.80;;;;;;;23.01;nan;98947.34;4975644;28;20256;-82
2023/10/14 00:15:06;;;;;;;5.00;3.70;;;;;;;22.96;nan;98942.56;4978154;28;20432;-81
2023/10/14 00:17:36;;;;;;;3.90;3.60;;;;;;;22.93;nan;98942.94;4972982;28;20443;-80
2023/10/14 00:20:03;;;;;;;5.53;3.90;;;;;;;22.90;nan;98950.50;4977080;28;20486;-80
2023/10/14 00:22:29;;;;;;;6.20;4.10;;;;;;;22.88;nan;98947.22;4981020;28;20492;-80
2023/10/14 00:24:58;;;;;;;8.57;4.10;;;;;;;22.84;nan;98945.94;4978144;28;20417;-80
2023/10/14 00:27:24;;;;;;;7.07;5.20;;;;;;;22.80;nan;98925.94;4977524;28;20534;-81
2023/10/14 00:30:06;;;;;;;5.90;3.60;;;;;;;22.71;nan;98928.75;4977974;28;21020;-82
2023/10/14 00:32:31;;;;;;;6.00;4.23;;;;;;;22.62;nan;98934.41;4978013;28;20231;-80
2023/10/14 00:34:57;;;;;;;8.00;3.87;;;;;;;22.56;nan;98933.34;4978145;28;20432;-80
2023/10/14 00:37:22;;;;;;;5.77;5.03;;;;;;;22.53;nan;98939.06;4976722;28;20629;-80
2023/10/14 00:40:01;;;;;;;6.37;4.27;;;;;;;22.48;nan;98936.97;4978902;28;20231;-80
2023/10/14 00:42:26;;;;;;;4.73;4.33;;;;;;;22.45;nan;98940.03;4972394;28;20556;-81
2023/10/14 00:44:52;;;;;;;7.50;5.13;;;;;;;22.46;nan;98935.50;4976726;28;20503;-80
2023/10/14 00:47:17;;;;;;;5.53;4.57;;;;;;;22.45;nan;98936.53;4981169;28;20719;-80
2023/10/14 00:49:45;;;;;;;4.20;3.80;;;;;;;22.43;nan;98934.03;4975179;28;20605;-80
2023/10/14 00:52:18;;;;;;;4.70;4.07;;;;;;;22.42;nan;98934.22;4974256;28;20728;-81
2023/10/14 00:59:45;;;;;;;6.43;4.80;;;;;;;22.39;nan;98934.63;4991379;28;20508;-81
2023/10/14 01:02:10;;;;;;;8.20;5.57;;;;;;;22.36;nan;98929.63;4973250;28;20733;-80
2023/10/14 01:04:40;;;;;;;6.03;4.80;;;;;;;22.36;nan;98925.13;4974303;28;20454;-80
2023/10/14 01:07:12;;;;;;;6.33;5.40;;;;;;;22.32;nan;98921.16;4977681;28;21140;-80
2023/10/14 01:12:26;;;;;;;6.50;4.67;;;;;;;22.27;nan;98904.84;4973969;28;20467;-82
2023/10/14 01:14:53;;;;;;;5.67;4.67;;;;;;;22.25;nan;98899.69;4975359;28;20778;-81
2023/10/14 01:17:32;;;;;;;6.53;4.50;;;;;;;22.24;nan;98895.34;4974832;28;20973;-80
2023/10/14 01:20:11;;;;;;;3.80;3.50;;;;;;;22.21;nan;98894.91;4975271;28;20516;-82
2023/10/14 01:22:41;;;;;;;8.13;4.73;;;;;;;22.21;nan;98895.72;4980351;28;20487;-81
2023/10/14 01:25:12;;;;;;;11.90;4.27;;;;;;;22.20;nan;98891.41;4978196;28;20445;-80
2023/10/14 01:27:38;;;;;;;8.10;3.80;;;;;;;22.19;nan;98895.06;4983512;28;21118;-80
2023/10/14 01:30:10;;;;;;;6.70;4.40;;;;;;;22.19;nan;98896.94;4977143;28;20461;-81
2023/10/14 01:35:31;;;;;;;5.87;4.87;;;;;;;22.18;nan;98882.72;4979022;28;20549;-79
2023/10/14 01:38:01;;;;;;;6.57;3.83;;;;;;;22.18;nan;98874.72;4973638;28;20433;-80
2023/10/14 01:40:35;;;;;;;5.30;4.80;;;;;;;22.17;nan;98881.06;4980368;28;20813;-81
2023/10/14 01:43:05;;;;;;;8.40;5.53;;;;;;;22.16;nan;98882.06;4975593;28;20437;-80
2023/10/14 01:45:39;;;;;;;5.30;4.00;;;;;;;22.17;nan;98885.56;4977572;28;20468;-81
2023/10/14 01:50:38;;;;;;;6.63;4.63;;;;;;;22.12;nan;98885.31;4984113;28;20554;-80
2023/10/14 01:53:11;;;;;;;10.37;4.90;;;;;;;22.09;nan;98886.53;4980861;28;20429;-81
2023/10/14 01:55:43;;;;;;;5.67;4.80;;;;;;;22.05;nan;98885.25;4975769;28;20430;-80
2023/10/14 01:58:21;;;;;;;5.30;4.10;;;;;;;22.04;nan;98883.59;4972585;28;20454;-80
2023/10/14 02:00:52;;;;;;;6.63;4.40;;;;;;;22.04;nan;98887.09;4968082;28;21195;-81
2023/10/14 02:03:20;;;;;;;5.60;5.03;;;;;;;22.02;nan;98882.94;4967250;28;20425;-81
2023/10/14 02:05:45;;;;;;;6.53;4.20;;;;;;;22.01;nan;98897.34;4966225;28;20901;-80
2023/10/14 02:08:14;;;;;;;5.90;4.97;;;;;;;22.01;nan;98895.50;4966900;28;20446;-80
2023/10/14 02:10:46;;;;;;;6.13;5.57;;;;;;;22.00;nan;98896.50;4967416;28;20211;-82
2023/10/14 02:13:17;;;;;;;5.90;4.30;;;;;;;22.00;nan;98907.19;4967224;28;20569;-82
2023/10/14 02:15:47;;;;;;;6.17;4.60;;;;;;;21.98;nan;98895.03;4968880;28;20433;-80
2023/10/14 02:18:22;;;;;;;6.40;4.47;;;;;;;21.98;nan;98878.97;4972143;28;20528;-80
2023/10/14 02:21:04;;;;;;;6.63;5.10;;;;;;;21.97;nan;98874.66;4976895;28;20485;-80
2023/10/14 02:23:43;;;;;;;5.30;4.80;;;;;;;21.95;nan;98860.63;4976468;28;20835;-80
2023/10/14 02:26:24;;;;;;;7.73;4.23;;;;;;;21.95;nan;98866.00;4972219;28;20447;-80
2023/10/14 02:28:52;;;;;;;7.80;5.40;;;;;;;21.95;nan;98872.16;4964820;28;20437;-81
2023/10/14 02:31:29;;;;;;;8.10;5.17;;;;;;;21.95;nan;98874.00;4955514;28;21270;-80
2023/10/14 02:34:06;;;;;;;5.50;5.00;;;;;;;21.95;nan;98874.84;4966579;28;20454;-80
2023/10/14 02:36:50;;;;;;;6.85;4.95;;;;;;;21.94;nan;98859.00;4964116;28;20874;-80
2023/10/14 02:39:27;;;;;;;5.00;4.50;;;;;;;21.94;nan;98853.66;4965917;28;20184;-82
2023/10/14 02:42:00;;;;;;;7.40;5.30;;;;;;;21.92;nan;98869.03;4966340;28;20564;-81
2023/10/14 02:44:32;;;;;;;8.50;5.20;;;;;;;21.89;nan;98875.59;4965719;28;20448;-80
2023/10/14 02:47:05;;;;;;;15.93;5.07;;;;;;;21.83;nan;98866.47;4966300;28;20462;-80
2023/10/14 02:49:39;;;;;;;9.20;4.93;;;;;;;21.81;nan;98884.53;4969685;28;20547;-82
2023/10/14 02:52:10;;;;;;;8.07;5.50;;;;;;;21.75;nan;98879.13;4972413;28;20457;-82
2023/10/14 02:54:39;;;;;;;6.70;5.87;;;;;;;21.71;nan;98876.03;4966194;28;20425;-80
2023/10/14 02:59:48;;;;;;;9.23;6.00;;;;;;;21.65;nan;98876.75;4973686;28;20462;-80
2023/10/14 03:02:25;;;;;;;7.83;5.43;;;;;;;21.64;nan;98880.44;4977284;28;20597;-82
2023/10/14 03:07:28;;;;;;;8.93;5.63;;;;;;;21.59;nan;98864.97;4980756;28;20417;-84
2023/10/14 03:09:58;;;;;;;7.67;5.50;;;;;;;21.59;nan;98880.16;4978956;28;20478;-83
2023/10/14 03:12:27;;;;;;;5.53;4.90;;;;;;;21.57;nan;98874.19;4981493;28;20804;-82
2023/10/14 03:14:54;;;;;;;13.50;6.17;;;;;;;21.55;nan;98877.06;4982011;28;20454;-80
2023/10/14 03:17:55;;;;;;;7.70;5.33;;;;;;;21.54;nan;98885.25;4980663;28;20465;-80
2023/10/14 03:20:34;;;;;;;10.13;6.50;;;;;;;21.54;nan;98896.75;4978103;28;20465;-80
2023/10/14 03:22:59;;;;;;;5.70;4.30;;;;;;;21.54;nan;98895.94;4984569;28;20529;-80
2023/10/14 03:25:24;;;;;;;7.23;5.90;;;;;;;21.53;nan;98894.28;4979616;28;20543;-81
2023/10/14 03:28:00;;;;;;;9.03;6.00;;;;;;;21.54;nan;98909.28;4975230;28;20822;-82
2023/10/14 03:30:31;;;;;;;7.90;6.00;;;;;;;21.52;nan;98906.81;4982132;28;20468;-81
2023/10/14 03:32:56;;;;;;;8.13;6.20;;;;;;;21.54;nan;98911.97;4979706;28;20985;-81
2023/10/14 03:35:23;;;;;;;6.97;5.83;;;;;;;21.53;nan;98918.34;4983388;28;20538;-83
2023/10/14 03:38:00;;;;;;;9.93;6.67;;;;;;;21.53;nan;98913.00;4983005;28;20218;-80
2023/10/14 03:43:07;;;;;;;6.93;5.10;;;;;;;21.53;nan;98907.66;4972411;28;20458;-81
2023/10/14 03:45:33;;;;;;;7.47;5.43;;;;;;;21.53;nan;98911.13;4971483;28;21002;-83
2023/10/14 03:48:00;;;;;;;6.13;5.43;;;;;;;21.50;nan;98905.34;4970188;28;20451;-80
2023/10/14 03:50:26;;;;;;;6.17;5.10;;;;;;;21.50;nan;98922.19;4971096;28;20539;-82
2023/10/14 03:52:53;;;;;;;13.20;5.93;;;;;;;21.51;nan;98931.03;4974337;28;20441;-81
2023/10/14 03:55:26;;;;;;;8.40;5.77;;;;;;;21.50;nan;98932.06;4970220;28;22802;-81
2023/10/14 03:57:58;;;;;;;6.17;5.57;;;;;;;21.51;nan;98939.06;4970151;28;20440;-81
2023/10/14 04:00:27;;;;;;;10.90;7.17;;;;;;;21.51;nan;98936.38;4981371;28;20480;-80
2023/10/14 04:02:57;;;;;;;10.23;5.53;;;;;;;21.53;nan;98942.38;4982004;28;20800;-84
2023/10/14 04:05:27;;;;;;;8.23;6.80;;;;;;;21.53;nan;98945.88;4982873;28;20975;-81
2023/10/14 04:07:54;;;;;;;7.77;5.20;;;;;;;21.53;nan;98947.72;4980367;28;20444;-80
2023/10/14 04:10:23;;;;;;;9.23;5.40;;;;;;;21.50;nan;98940.09;4981181;28;20465;-82
2023/10/14 04:12:54;;;;;;;6.27;5.60;;;;;;;21.50;nan;98958.78;4982685;28;20664;-82
2023/10/14 04:15:46;;;;;;;6.70;5.73;;;;;;;21.44;nan;98946.97;4981467;28;20449;-83
2023/10/14 04:18:12;;;;;;;6.23;5.63;;;;;;;21.43;nan;98934.63;4972305;28;20656;-81
2023/10/14 04:20:38;;;;;;;7.43;5.80;;;;;;;21.42;nan;98946.34;4983220;28;20448;-82
2023/10/14 04:23:19;;;;;;;8.10;5.10;;;;;;;21.36;nan;98947.88;4979188;28;20455;-81
2023/10/14 04:25:56;;;;;;;7.47;5.07;;;;;;;21.34;nan;98931.19;4978151;28;20200;-80
2023/10/14 04:28:30;;;;;;;7.70;5.73;;;;;;;21.31;nan;98934.25;4976307;28;20452;-84
2023/10/14 04:31:00;;;;;;;11.30;5.87;;;;;;;21.29;nan;98936.25;4981387;28;20443;-81
2023/10/14 04:33:35;;;;;;;6.67;4.40;;;;;;;21.25;nan;98932.28;4981659;28;21019;-82
2023/10/14 04:38:38;;;;;;;7.10;6.13;;;;;;;21.21;nan;98955.03;4977613;28;20211;-81
2023/10/14 04:41:04;;;;;;;9.87;5.17;;;;;;;21.16;nan;98946.72;4977304;28;20463;-82
2023/10/14 04:45:55;;;;;;;7.30;4.83;;;;;;;21.15;nan;98950.44;4981757;28;20818;-84
2023/10/14 04:49:08;;;;;;;8.67;5.93;;;;;;;21.12;nan;98945.44;4979002;28;20227;-81
2023/10/14 04:51:19;;;;;;;6.33;4.07;;;;;;;21.07;nan;98955.84;4970721;28;20738;-83
2023/10/14 04:53:49;;;;;;;5.60;4.40;;;;;;;21.03;nan;98955.34;4978145;28;20537;-82
2023/10/14 04:56:30;;;;;;;8.23;6.00;;;;;;;20.99;nan;98952.22;4977181;28;20472;-84
2023/10/14 04:58:56;;;;;;;8.40;5.00;;;;;;;21.02;nan;98955.56;4979259;28;20432;-83
2023/10/14 05:01:24;;;;;;;9.93;7.23;;;;;;;20.96;nan;98947.25;4975083;28;20475;-82
2023/10/14 05:03:55;;;;;;;9.47;5.97;;;;;;;20.95;nan;98953.63;4980434;28;20449;-81
2023/10/14 05:06:21;;;;;;;8.20;5.30;;;;;;;20.96;nan;98968.59;4975973;28;20455;-84
2023/10/14 05:08:51;;;;;;;9.43;4.80;;;;;;;20.95;nan;98969.63;4974594;28;20866;-83
2023/10/14 05:11:18;;;;;;;6.90;4.57;;;;;;;20.93;nan;98962.81;4967202;28;20515;-81
2023/10/14 05:14:06;;;;;;;8.50;5.37;;;;;;;20.93;nan;98954.81;4976537;28;20500;-84
2023/10/14 05:16:55;;;;;;;8.63;5.13;;;;;;;20.89;nan;98967.66;4972174;28;20508;-83
2023/10/14 05:19:29;;;;;;;8.27;7.27;;;;;;;20.87;nan;98959.00;4974635;28;20634;-82
2023/10/14 05:22:02;;;;;;;11.50;5.37;;;;;;;20.86;nan;98957.34;4974253;28;20650;-84
2023/10/14 05:24:31;;;;;;;10.77;5.80;;;;;;;20.88;nan;98952.66;4972645;28;20456;-83
2023/10/14 05:27:00;;;;;;;9.93;4.53;;;;;;;20.91;nan;98962.97;4973935;28;20465;-81
2023/10/14 05:29:27;;;;;;;10.23;6.53;;;;;;;20.94;nan;98964.47;4975893;28;20467;-84
2023/10/14 05:31:53;;;;;;;7.60;4.57;;;;;;;20.93;nan;98960.97;4975088;28;20566;-84
2023/10/14 05:34:26;;;;;;;6.40;5.03;;;;;;;20.92;nan;98961.97;4976781;28;20454;-82
2023/10/14 05:36:57;;;;;;;7.93;5.20;;;;;;;20.90;nan;98956.00;4974259;28;20571;-84
2023/10/14 05:39:24;;;;;;;9.00;5.83;;;;;;;20.92;nan;98959.28;4976774;28;20455;-81
2023/10/14 05:41:58;;;;;;;6.10;4.60;;;;;;;20.92;nan;98959.28;4976761;28;21169;-82
2023/10/14 05:44:27;;;;;;;6.37;5.17;;;;;;;20.91;nan;98960.31;4980729;28;20466;-81
2023/10/14 05:46:54;;;;;;;12.13;5.53;;;;;;;20.92;nan;98963.81;4980114;28;20472;-83
2023/10/14 05:49:24;;;;;;;8.60;5.47;;;;;;;20.92;nan;98971.81;4981804;28;20474;-80
2023/10/14 05:51:53;;;;;;;7.70;5.43;;;;;;;20.89;nan;98965.00;4982198;28;20527;-81
2023/10/14 05:54:22;;;;;;;7.90;5.93;;;;;;;20.92;nan;98972.63;4979220;28;20457;-81
2023/10/14 05:56:51;;;;;;;7.73;4.47;;;;;;;20.91;nan;98981.66;4971670;28;20454;-83
2023/10/14 05:59:17;;;;;;;7.83;4.40;;;;;;;20.92;nan;98988.66;4981255;28;20530;-83
2023/10/14 06:01:46;;;;;;;8.23;5.47;;;;;;;20.95;nan;98982.97;4980601;28;20480;-83
2023/10/14 06:04:13;;;;;;;6.63;5.20;;;;;;;20.96;nan;98989.16;4979567;28;20475;-81
2023/10/14 06:06:40;;;;;;;6.70;4.60;;;;;;;20.94;nan;98991.97;4981698;28;20457;-82
2023/10/14 06:09:08;;;;;;;6.53;4.20;;;;;;;20.97;nan;98993.47;4982506;28;20448;-84
2023/10/14 06:11:33;;;;;;;7.50;5.47;;;;;;;20.97;nan;98999.63;4981883;28;20570;-81
2023/10/14 06:14:02;;;;;;;9.97;5.70;;;;;;;20.98;nan;98995.97;4983912;28;20457;-81
2023/10/14 06:16:29;;;;;;;6.37;4.90;;;;;;;20.99;nan;99016.31;4982321;28;20222;-83
2023/10/14 06:18:56;;;;;;;7.93;4.90;;;;;;;21.00;nan;99022.47;4981205;28;21035;-83
2023/10/14 06:21:24;;;;;;;11.57;6.10;;;;;;;20.99;nan;99018.16;4976340;28;20448;-81
2023/10/14 06:23:53;;;;;;;7.07;4.80;;;;;;;20.98;nan;99020.00;4982965;28;20443;-80
2023/10/14 06:26:19;;;;;;;7.77;4.77;;;;;;;20.98;nan;99024.47;4971988;28;20473;-82
2023/10/14 06:28:49;;;;;;;5.00;4.50;;;;;;;20.95;nan;99024.84;4978478;28;20449;-83
2023/10/14 06:31:18;;;;;;;6.70;5.20;;;;;;;20.94;nan;99032.03;4976589;28;20214;-81
2023/10/14 06:33:45;;;;;;;7.27;4.20;;;;;;;20.90;nan;99022.72;4979094;28;20457;-81
2023/10/14 06:36:14;;;;;;;9.23;6.00;;;;;;;20.91;nan;99035.06;4979494;28;20444;-84
2023/10/14 06:38:46;;;;;;;8.27;5.23;;;;;;;20.91;nan;99037.72;4977893;28;20553;-81
2023/10/14 06:41:13;;;;;;;9.27;5.13;;;;;;;20.93;nan;99035.72;4981746;28;20536;-82
2023/10/14 06:43:39;;;;;;;7.63;5.40;;;;;;;20.95;nan;99033.72;4983332;28;20447;-82
2023/10/14 06:46:05;;;;;;;8.33;5.27;;;;;;;20.96;nan;99034.53;4978154;28;20461;-83
2023/10/14 06:48:32;;;;;;;6.53;4.93;;;;;;;20.99;nan;99031.50;4980320;28;20219;-81
2023/10/14 06:50:59;;;;;;;10.87;5.00;;;;;;;21.02;nan;99043.66;4985282;28;20448;-82
2023/10/14 06:53:28;;;;;;;5.70;5.10;;;;;;;21.04;nan;99055.84;4986451;28;20454;-81
2023/10/14 06:55:54;;;;;;;7.70;5.30;;;;;;;21.07;nan;99060.00;4985086;28;20421;-80
2023/10/14 06:58:21;;;;;;;6.73;4.43;;;;;;;21.10;nan;99056.97;4983007;28;20455;-81
2023/10/14 07:00:48;;;;;;;6.60;4.90;;;;;;;21.09;nan;99052.59;4981081;28;20670;-82
2023/10/14 07:03:14;;;;;;;9.33;5.13;;;;;;;21.09;nan;99060.63;4982331;28;20482;-81
2023/10/14 07:05:48;;;;;;;6.90;5.03;;;;;;;21.10;nan;99065.78;4983683;28;21543;-80
2023/10/14 07:08:19;;;;;;;6.57;4.73;;;;;;;21.17;nan;99065.91;4982376;28;21165;-81
2023/10/14 07:10:47;;;;;;;6.50;5.07;;;;;;;21.24;nan;99069.53;4981799;28;20466;-81
2023/10/14 07:13:13;;;;;;;6.63;4.50;;;;;;;21.26;nan;99086.22;4983602;28;20497;-83
2023/10/14 07:15:41;;;;;;;12.17;6.27;;;;;;;21.28;nan;99080.66;4971711;28;20451;-81
2023/10/14 07:18:08;;;;;;;5.67;4.87;;;;;;;21.34;nan;99086.13;4973789;28;20207;-83
2023/10/14 07:20:34;;;;;;;11.63;5.40;;;;;;;21.42;nan;99080.75;4975406;28;20480;-81
2023/10/14 07:23:01;;;;;;;7.07;5.60;;;;;;;21.50;nan;99079.84;4975814;28;20452;-81
2023/10/14 07:25:39;;;;;;;8.63;4.90;;;;;;;21.59;nan;99080.59;4975684;28;20994;-83
2023/10/14 07:28:13;;;;;;;8.83;5.40;;;;;;;21.69;nan;99077.69;4976474;28;20959;-82
2023/10/14 07:30:45;;;;;;;8.20;5.57;;;;;;;21.77;nan;99078.44;4981617;28;20521;-81
2023/10/14 07:33:12;;;;;;;7.63;4.03;;;;;;;21.88;nan;99088.66;4983134;28;20546;-82
2023/10/14 07:35:40;;;;;;;5.53;4.80;;;;;;;22.01;nan;99084.53;4984536;28;20441;-83
2023/10/14 07:38:05;;;;;;;10.03;6.13;;;;;;;22.11;nan;99085.06;4984089;28;20436;-81
2023/10/14 07:40:34;;;;;;;8.00;4.60;;;;;;;22.19;nan;99070.81;4983007;28;20872;-81
2023/10/14 07:43:07;;;;;;;5.97;4.53;;;;;;;22.22;nan;99081.13;4983745;28;21213;-81
2023/10/14 07:45:37;;;;;;;6.43;5.23;;;;;;;22.23;nan;99094.34;4983607;28;20443;-82
2023/10/14 07:48:09;;;;;;;7.40;5.63;;;;;;;22.22;nan;99081.97;4983737;28;21005;-81
2023/10/14 07:50:40;;;;;;;9.50;5.40;;;;;;;22.21;nan;99088.34;4981197;28;20927;-81
2023/10/14 07:53:12;;;;;;;6.37;4.87;;;;;;;22.18;nan;99094.06;4983432;28;20488;-80
2023/10/14 07:55:47;;;;;;;12.47;5.17;;;;;;;22.19;nan;99098.38;4982323;28;20447;-81
2023/10/14 07:58:14;;;;;;;9.43;5.00;;;;;;;22.17;nan;99094.19;4985086;28;20458;-83
2023/10/14 08:00:41;;;;;;;7.07;4.70;;;;;;;22.12;nan;99093.94;4980373;28;20470;-82
2023/10/14 08:03:09;;;;;;;8.80;4.33;;;;;;;22.13;nan;99093.75;4983613;28;20463;-78
2023/10/14 08:05:38;;;;;;;8.93;5.60;;;;;;;22.17;nan;99092.38;4981253;28;20564;-78
2023/10/14 08:08:09;;;;;;;7.13;5.37;;;;;;;22.22;nan;99092.66;4979522;28;20493;-79
2023/10/14 08:10:45;;;;;;;6.77;4.00;;;;;;;22.21;nan;99093.69;4977722;28;20467;-78
2023/10/14 08:13:12;;;;;;;5.70;3.93;;;;;;;22.17;nan;99108.44;4981638;28;20585;-79
2023/10/14 08:15:38;;;;;;;7.17;5.13;;;;;;;22.14;nan;99103.41;4994658;28;20421;-78
2023/10/14 08:18:07;;;;;;;8.97;5.73;;;;;;;22.07;nan;99099.84;4978026;28;20469;-78
2023/10/14 08:20:34;;;;;;;8.13;3.33;;;;;;;21.97;nan;99100.09;4978972;28;20503;-78
2023/10/14 08:23:00;;;;;;;6.60;3.57;;;;;;;21.84;nan;99119.44;4975525;28;20441;-78
2023/10/14 08:25:26;;;;;;;7.03;3.77;;;;;;;21.67;nan;99101.91;4976336;28;20472;-78
2023/10/14 08:27:53;;;;;;;7.03;3.33;;;;;;;21.51;nan;99105.56;4979493;28;20437;-78
2023/10/14 08:30:19;;;;;;;5.10;4.17;;;;;;;21.34;nan;99112.03;4973518;28;20517;-78
2023/10/14 08:32:46;;;;;;;5.90;3.77;;;;;;;21.25;nan;99110.41;4976894;28;20469;-79
2023/10/14 08:35:16;;;;;;;6.10;4.10;;;;;;;21.14;nan;99120.53;4982424;28;20739;-78
2023/10/14 08:37:47;;;;;;;5.80;4.10;;;;;;;21.08;nan;99115.03;4979192;28;20456;-78
2023/10/14 08:40:16;;;;;;;5.33;3.93;;;;;;;21.05;nan;99107.41;4980304;28;20472;-79
2023/10/14 08:42:54;;;;;;;6.83;3.60;;;;;;;21.00;nan;99111.41;4977569;28;20949;-78
2023/10/14 08:45:21;;;;;;;4.80;4.00;;;;;;;20.93;nan;99113.16;4976629;28;20454;-78
2023/10/14 08:47:52;;;;;;;4.97;4.10;;;;;;;20.88;nan;99118.19;4970880;28;20505;-78
2023/10/14 08:50:29;;;;;;;10.93;5.30;;;;;;;20.75;nan;99113.41;4962015;28;20504;-77
2023/10/14 08:52:56;;;;;;;7.50;4.07;;;;;;;20.58;nan;99119.84;4967274;28;20494;-77
2023/10/14 08:55:23;;;;;;;6.63;4.23;;;;;;;20.47;nan;99131.69;4964306;28;20936;-78
2023/10/14 08:57:50;;;;;;;4.73;3.93;;;;;;;20.36;nan;99124.06;4968411;28;20885;-77
2023/10/14 09:00:23;;;;;;;5.90;4.60;;;;;;;20.26;nan;99134.09;4962610;28;20482;-76
2023/10/14 09:02:51;;;;;;;4.67;4.23;;;;;;;20.18;nan;99129.63;4967794;28;20469;-77
2023/10/14 09:05:18;;;;;;;6.27;4.47;;;;;;;20.10;nan;99138.47;4967410;28;20450;-77
2023/10/14 09:07:45;;;;;;;9.25;5.28;;;;;;;20.08;nan;99137.78;4965141;28;20489;-77
2023/10/14 09:10:11;;;;;;;6.53;4.40;;;;;;;20.02;nan;99135.81;4964882;28;20214;-77
2023/10/14 09:12:37;;;;;;;5.67;4.40;;;;;;;19.88;nan;99139.19;4964241;28;20466;-77
2023/10/14 09:15:03;;;;;;;4.50;4.10;;;;;;;19.74;nan;99140.69;4968131;28;21012;-77
2023/10/14 09:17:28;;;;;;;6.33;5.33;;;;;;;19.64;nan;99137.34;4965215;28;20480;-78
2023/10/14 09:19:55;;;;;;;10.00;5.03;;;;;;;19.58;nan;99138.03;4964137;28;20809;-78
2023/10/14 09:22:28;;;;;;;9.30;4.70;;;;;;;19.55;nan;99140.97;4966384;28;20567;-78
2023/10/14 09:24:58;;;;;;;9.10;6.50;;;;;;;19.53;nan;99135.03;4964578;28;20511;-78
2023/10/14 09:27:31;;;;;;;8.30;5.50;;;;;;;19.52;nan;99139.47;4956687;28;20459;-77
2023/10/14 09:29:59;;;;;;;7.40;5.00;;;;;;;19.54;nan;99126.84;4957898;28;20568;-78
2023/10/14 09:32:25;;;;;;;6.10;5.20;;;;;;;19.58;nan;99132.69;4958436;28;21236;-77
2023/10/14 09:34:51;;;;;;;9.40;5.37;;;;;;;19.63;nan;99136.50;4959306;28;20453;-78
2023/10/14 09:37:17;;;;;;;6.73;5.13;;;;;;;19.67;nan;99137.03;4959230;28;20232;-78
2023/10/14 09:39:48;;;;;;;9.17;6.30;;;;;;;19.69;nan;99135.03;4959316;28;20930;-77
2023/10/14 09:42:15;;;;;;;7.83;5.10;;;;;;;19.68;nan;99136.03;4960784;28;20842;-77
2023/10/14 09:44:44;;;;;;;15.83;5.93;;;;;;;19.63;nan;99133.84;4962843;28;20812;-78
2023/10/14 09:47:14;;;;;;;5.90;4.67;;;;;;;19.59;nan;99129.00;4961724;28;20459;-77
2023/10/14 09:49:41;;;;;;;7.80;5.33;;;;;;;19.57;nan;99137.16;4962168;28;20503;-78
2023/10/14 09:52:14;;;;;;;7.43;5.47;;;;;;;19.55;nan;99138.31;4963624;28;21116;-78
2023/10/14 09:54:41;;;;;;;8.30;5.07;;;;;;;19.51;nan;99140.50;4962376;28;20468;-77
2023/10/14 09:57:10;;;;;;;9.03;5.30;;;;;;;19.48;nan;99142.66;4963887;28;20478;-77
2023/10/14 09:59:40;;;;;;;17.30;5.67;;;;;;;19.43;nan;99143.16;4967834;28;20465;-76
2023/10/14 10:02:09;;;;;;;9.53;4.20;;;;;;;19.44;nan;99142.16;4968801;28;20562;-76
2023/10/14 10:04:39;;;;;;;8.93;6.07;;;;;;;19.45;nan;99135.84;4967551;28;20460;-76
2023/10/14 10:07:22;;;;;;;8.40;6.20;;;;;;;19.51;nan;99132.50;4968018;28;20454;-76
2023/10/14 10:10:20;;;;;;;11.03;5.30;;;;;;;19.58;nan;99138.84;4967727;28;20469;-75
2023/10/14 10:12:53;;;;;;;7.90;5.93;;;;;;;19.67;nan;99137.03;4973237;28;20483;-75
2023/10/14 10:15:19;;;;;;;10.57;5.10;;;;;;;19.77;nan;99136.88;4971236;28;20480;-76
2023/10/14 10:17:56;;;;;;;6.63;5.33;;;;;;;19.81;nan;99139.00;4971661;28;20459;-75
2023/10/14 10:20:30;;;;;;;9.23;5.30;;;;;;;19.87;nan;99129.50;4968696;28;20439;-75
2023/10/14 10:22:56;;;;;;;10.80;5.30;;;;;;;19.91;nan;99128.19;4968793;28;20469;-75
2023/10/14 10:25:47;;;;;;;7.87;5.40;;;;;;;19.97;nan;99132.81;4967084;28;21085;-75
2023/10/14 10:28:27;;;;;;;5.13;4.53;;;;;;;20.01;nan;99122.66;4961595;28;20438;-75
2023/10/14 10:31:09;;;;;;;9.27;4.97;;;;;;;20.07;nan;99122.81;4968844;28;20453;-75
2023/10/14 10:33:53;;;;;;;7.50;4.57;;;;;;;20.20;nan;99116.94;4971815;28;20469;-75
2023/10/14 10:36:24;;;;;;;5.10;3.90;;;;;;;20.32;nan;99112.91;4966284;28;20483;-75
2023/10/14 10:38:53;;;;;;;9.93;4.30;;;;;;;20.46;nan;99114.00;4961319;28;20448;-75
2023/10/14 10:41:24;;;;;;;8.83;5.20;;;;;;;20.57;nan;99141.34;4967074;28;20561;-76
2023/10/14 10:43:50;;;;;;;3.67;2.63;;;;;;;20.59;nan;99156.19;4968356;28;20463;-75
2023/10/14 10:46:55;;;;;;;1.27;1.10;;;;;;;20.41;nan;99156.38;4967723;28;20527;-76
2023/10/14 10:49:56;;;;;;;1.17;0.80;;;;;;;20.00;nan;99179.63;4946796;28;20451;-76
2023/10/14 10:52:24;;;;;;;0.80;0.80;;;;;;;19.55;nan;99181.81;4932817;28;20980;-76
2023/10/14 10:54:51;;;;;;;3.07;2.07;;;;;;;19.09;nan;99192.06;4967971;28;20541;-76
2023/10/14 10:57:17;;;;;;;1.10;0.70;;;;;;;18.77;nan;99193.59;4965923;28;20464;-76
2023/10/14 10:59:43;;;;;;;0.70;0.63;;;;;;;18.42;nan;99191.09;4968632;28;20458;-76
2023/10/14 11:02:10;;;;;;;1.67;0.60;;;;;;;18.16;nan;99199.06;4969036;28;21082;-76
2023/10/14 11:04:41;;;;;;;1.53;0.57;;;;;;;17.96;nan;99206.38;4969834;28;20455;-76
2023/10/14 11:07:08;;;;;;;7.60;2.10;;;;;;;17.84;nan;99198.66;4967038;28;20444;-76
2023/10/14 11:09:40;;;;;;;1.93;0.60;;;;;;;17.67;nan;99204.81;4968296;28;20213;-76
2023/10/14 11:12:10;;;;;;;5.87;1.17;;;;;;;17.56;nan;99207.69;4966222;28;20826;-76
2023/10/14 11:14:36;;;;;;;1.83;0.70;;;;;;;17.42;nan;99204.59;4966677;28;21046;-76
2023/10/14 11:17:04;;;;;;;1.47;0.70;;;;;;;17.31;nan;99210.13;4967402;28;20493;-76
2023/10/14 11:19:32;;;;;;;10.60;2.27;;;;;;;17.24;nan;99209.88;4969781;28;20475;-76
2023/10/14 11:21:59;;;;;;;24.77;5.17;;;;;;;17.23;nan;99234.75;4966836;28;20445;-77
2023/10/14 11:24:25;;;;;;;19.00;4.17;;;;;;;17.20;nan;99258.94;4965240;28;20965;-76
2023/10/14 11:26:51;;;;;;;1.00;0.80;;;;;;;17.18;nan;99279.47;4963817;28;20501;-76
2023/10/14 11:29:17;;;;;;;0.90;0.90;;;;;;;17.12;nan;99276.56;4959643;28;20470;-76
2023/10/14 11:31:44;;;;;;;1.87;0.70;;;;;;;17.02;nan;99266.84;4960685;28;20547;-76
2023/10/14 11:34:12;;;;;;;25.13;4.70;;;;;;;16.95;nan;99276.38;4961104;28;20255;-76
2023/10/14 11:36:42;;;;;;;1.03;0.67;;;;;;;16.78;nan;99277.16;4962414;28;20811;-76
2023/10/14 11:39:13;;;;;;;0.60;0.50;;;;;;;16.64;nan;99285.56;4961014;28;20450;-76
2023/10/14 11:41:42;;;;;;;5.73;1.73;;;;;;;16.55;nan;99272.19;4961083;28;20462;-76
2023/10/14 11:44:07;;;;;;;4.47;1.50;;;;;;;16.49;nan;99278.03;4961774;28;21000;-76
2023/10/14 11:46:39;;;;;;;6.73;2.30;;;;;;;16.46;nan;99261.59;4960271;28;20475;-75
2023/10/14 11:49:10;;;;;;;8.70;1.50;;;;;;;16.40;nan;99257.69;4961317;28;20210;-76
2023/10/14 11:51:46;;;;;;;5.93;0.83;;;;;;;16.41;nan;99262.00;4961821;28;20470;-77
2023/10/14 11:54:11;;;;;;;1.20;0.77;;;;;;;16.33;nan;99283.91;4962691;28;22675;-76
2023/10/14 11:56:39;;;;;;;2.43;0.90;;;;;;;16.31;nan;99293.84;4961016;28;20733;-77
2023/10/14 11:59:04;;;;;;;0.80;0.67;;;;;;;16.26;nan;99313.81;4963537;28;20203;-77
2023/10/14 12:01:34;;;;;;;1.10;0.60;;;;;;;16.23;nan;99325.53;4966167;28;20487;-77
2023/10/14 12:03:59;;;;;;;1.13;0.68;;;;;;;16.20;nan;99327.59;4964102;28;20209;-78
2023/10/14 12:06:25;;;;;;;1.93;0.70;;;;;;;16.15;nan;99326.22;4964270;28;20814;-76
2023/10/14 12:08:52;;;;;;;1.60;0.60;;;;;;;16.06;nan;99320.91;4967880;28;20249;-76
2023/10/14 12:11:19;;;;;;;0.80;0.70;;;;;;;16.05;nan;99321.91;4967657;28;20218;-77
2023/10/14 12:13:44;;;;;;;2.80;0.80;;;;;;;16.09;nan;99324.16;4968420;28;20465;-77
2023/10/14 12:16:11;;;;;;;2.90;0.80;;;;;;;16.15;nan;99342.13;4965645;28;20777;-77
2023/10/14 12:18:36;;;;;;;2.80;0.90;;;;;;;16.22;nan;99350.34;4963523;28;20279;-77
2023/10/14 12:21:03;;;;;;;1.17;0.90;;;;;;;16.32;nan;99360.94;4967033;28;20470;-78
2023/10/14 12:23:33;;;;;;;2.07;0.97;;;;;;;16.41;nan;99369.88;4967036;28;20576;-77
2023/10/14 12:26:00;;;;;;;1.20;0.70;;;;;;;16.45;nan;99366.78;4960239;28;20461;-76
2023/10/14 12:28:27;;;;;;;1.13;0.80;;;;;;;16.44;nan;99367.75;4965950;28;20485;-78